METAR AND TAF INFORMATION
METAR FOR KPWM
KPWM 130851Z 19007KT 6SM BR FEW007 06/06 A2947 RMK AO2 SLP980 T00610056 58007
KPWM 130751Z AUTO 17007KT 7SM CLR 07/06 A2948 RMK AO2 SLP982 T00670061
KPWM 130651Z AUTO 18010G19KT 8SM CLR 07/07 A2950 RMK AO2 SLP988 T00720067
KPWM 130909Z 1309/1406 18012KT P6SM SCT080
FM131300 19010G20KT P6SM BKN060
FM132100 24010G20KT P6SM BKN060

 AIRPORT MAP

 RUNWAY INFORMATION
Runway 11 Runway length 7200 ft Runway width 150 ft
Runway elevation 77 ft Runway displaced threshold 0 ft Runway heading 95
Runway 29 Runway length 7200 ft Runway width 150 ft
Runway elevation 43 ft Runway displaced threshold 0 ft Runway heading 275
Runway 18 Runway length 5001 ft Runway width 150 ft
Runway elevation 45 ft Runway displaced threshold 0 ft Runway heading 163
Runway 36 Runway length 5001 ft Runway width 150 ft
Runway elevation 47 ft Runway displaced threshold 0 ft Runway heading 343

 AIRPORT FREQUENCIES
Type A/D Name APP/DEP Frequency 119.75 MHZ
Type ATIS Name ATIS Frequency 119.05 MHZ
Type CLD Name CLNC DEL Frequency 121.9 MHZ
Type CTAF Name CTAF Frequency 120.9 MHZ
Type GND Name GND Frequency 121.9 MHZ
Type TWR Name TWR Frequency 120.9 MHZ
Type UNIC Name UNICOM Frequency 122.95 MHZ

 AIRPORT NEAR NAVIGATION AIDS
Type NDB Name Orham Frequency 394 KHZ

-